Time,TemperatureF,DewpointF,PressureIn,WindDirection,WindDirectionDegrees,WindSpeedMPH,WindSpeedGustMPH,Humidity,HourlyPrecipIn,Conditions,Clouds,dailyrainin,SolarRadiationWatts/m^2,SoftwareType,DateUTC
2013-02-20 00:11:00,29.0,28.0,-100.00,South,171,0.0,3.0,96,0.00,,,0.03,0.000000,,2013-02-20 08:11:00,
2013-02-20 00:21:00,29.0,28.0,-100.00,South,171,0.0,3.0,96,0.00,,,0.03,0.000000,,2013-02-20 08:21:00,
2013-02-20 00:52:00,29.0,28.0,-100.00,South,189,1.0,3.0,96,0.00,,,0.03,0.000000,,2013-02-20 08:52:00,
2013-02-20 01:01:00,29.0,28.0,-100.00,South,189,1.0,3.0,96,0.00,,,0.03,0.000000,,2013-02-20 09:01:00,
2013-02-20 01:11:00,29.0,28.0,-100.00,South,189,1.0,3.0,96,0.00,,,0.03,0.000000,,2013-02-20 09:11:00,
2013-02-20 01:21:00,29.0,28.0,-100.00,South,189,1.0,3.0,96,0.00,,,0.03,0.000000,,2013-02-20 09:21:00,
2013-02-20 01:52:00,29.0,26.0,-100.00,SSE,159,1.0,3.0,89,0.00,,,0.03,0.000000,,2013-02-20 09:52:00,
2013-02-20 02:01:00,29.0,26.0,-100.00,SSE,159,1.0,3.0,89,0.00,,,0.03,0.000000,,2013-02-20 10:01:00,
2013-02-20 02:12:00,29.0,26.0,-100.00,SSE,159,1.0,3.0,89,0.00,,,0.03,0.000000,,2013-02-20 10:12:00,
2013-02-20 02:21:00,29.0,26.0,-100.00,SSE,159,1.0,3.0,89,0.00,,,0.03,0.000000,,2013-02-20 10:21:00,
2013-02-20 02:52:00,30.0,28.0,-100.00,ESE,112,2.0,4.0,92,0.00,,,0.03,0.000000,,2013-02-20 10:52:00,
2013-02-20 03:02:00,30.0,28.0,-100.00,ESE,112,2.0,4.0,92,0.00,,,0.03,0.000000,,2013-02-20 11:02:00,
2013-02-20 03:11:00,30.0,28.0,-100.00,ESE,112,2.0,4.0,92,0.00,,,0.03,0.000000,,2013-02-20 11:11:00,
2013-02-20 03:21:00,30.0,28.0,-100.00,ESE,112,2.0,4.0,92,0.00,,,0.03,0.000000,,2013-02-20 11:21:00,
2013-02-20 03:52:00,29.0,27.0,-100.00,WNW,287,0.0,3.0,92,0.00,,,0.03,0.000000,,2013-02-20 11:52:00,
2013-02-20 04:01:00,29.0,27.0,-100.00,WNW,287,0.0,3.0,92,0.00,,,0.03,0.000000,,2013-02-20 12:01:00,
2013-02-20 04:12:00,29.0,27.0,-100.00,WNW,287,0.0,3.0,92,0.00,,,0.03,0.000000,,2013-02-20 12:12:00,
2013-02-20 04:21:00,29.0,27.0,-100.00,WNW,287,0.0,3.0,92,0.00,,,0.03,0.000000,,2013-02-20 12:21:00,
2013-02-20 04:53:00,30.0,29.0,-100.00,NE,43,0.0,3.0,95,0.00,,,0.03,0.000000,,2013-02-20 12:53:00,
2013-02-20 05:01:00,30.0,29.0,-100.00,NE,43,0.0,3.0,95,0.00,,,0.03,0.000000,,2013-02-20 13:01:00,
2013-02-20 05:11:00,30.0,29.0,-100.00,NE,43,0.0,3.0,95,0.00,,,0.03,0.000000,,2013-02-20 13:11:00,
2013-02-20 05:22:00,30.0,29.0,-100.00,NE,43,0.0,3.0,95,0.00,,,0.03,0.000000,,2013-02-20 13:22:00,
2013-02-20 06:52:00,30.0,28.0,-100.00,ESE,121,1.0,3.0,92,-99.99,,,0.03,0.000000,,2013-02-20 14:52:00,
2013-02-20 07:01:00,30.0,28.0,-100.00,ESE,121,1.0,3.0,92,-99.99,,,0.03,0.000000,,2013-02-20 15:01:00,
2013-02-20 07:11:00,30.0,28.0,-100.00,ESE,121,1.0,3.0,92,-99.99,,,0.03,0.000000,,2013-02-20 15:11:00,
2013-02-20 07:22:00,30.0,28.0,-100.00,ESE,121,1.0,3.0,92,-99.99,,,0.03,0.000000,,2013-02-20 15:22:00,
2013-02-20 07:52:00,31.0,27.0,-100.00,WSW,258,0.0,4.0,85,0.00,,,0.03,1.000000,,2013-02-20 15:52:00,
2013-02-20 08:01:00,31.0,27.0,-100.00,WSW,258,0.0,4.0,85,0.00,,,0.03,1.000000,,2013-02-20 16:01:00,
2013-02-20 08:11:00,31.0,27.0,-100.00,WSW,258,0.0,4.0,85,0.00,,,0.03,1.000000,,2013-02-20 16:11:00,
2013-02-20 08:21:00,31.0,27.0,-100.00,WSW,258,0.0,4.0,85,0.00,,,0.03,1.000000,,2013-02-20 16:21:00,
2013-02-20 08:52:00,32.0,29.0,-100.00,SSE,159,2.0,6.0,87,0.00,,,0.03,25.000000,,2013-02-20 16:52:00,
2013-02-20 09:01:00,32.0,29.0,-100.00,SSE,159,2.0,6.0,87,0.00,,,0.03,25.000000,,2013-02-20 17:01:00,
2013-02-20 09:11:00,32.0,29.0,-100.00,SSE,159,2.0,6.0,87,0.00,,,0.03,25.000000,,2013-02-20 17:11:00,
2013-02-20 09:21:00,32.0,29.0,-100.00,SSE,159,2.0,6.0,87,0.00,,,0.03,25.000000,,2013-02-20 17:21:00,
2013-02-20 09:52:00,34.0,29.0,-100.00,SSE,163,3.0,6.0,81,0.00,,,0.01,51.000000,,2013-02-20 17:52:00,
2013-02-20 10:02:00,34.0,29.0,-100.00,SSE,163,3.0,6.0,81,0.00,,,0.01,51.000000,,2013-02-20 18:02:00,
2013-02-20 10:11:00,34.0,29.0,-100.00,SSE,163,3.0,6.0,81,0.00,,,0.01,51.000000,,2013-02-20 18:11:00,
2013-02-20 10:21:00,34.0,29.0,-100.00,SSE,163,3.0,6.0,81,0.00,,,0.01,51.000000,,2013-02-20 18:21:00,
2013-02-20 10:52:00,36.0,32.0,-100.00,ENE,64,1.0,5.0,85,0.01,,,0.01,120.000000,,2013-02-20 18:52:00,
2013-02-20 11:01:00,36.0,32.0,-100.00,ENE,64,1.0,5.0,85,0.01,,,0.01,120.000000,,2013-02-20 19:01:00,
2013-02-20 11:11:00,36.0,32.0,-100.00,ENE,64,1.0,5.0,85,0.01,,,0.01,120.000000,,2013-02-20 19:11:00,
2013-02-20 11:21:00,36.0,32.0,-100.00,ENE,64,1.0,5.0,85,0.01,,,0.01,120.000000,,2013-02-20 19:21:00,
2013-02-20 11:52:00,37.0,31.0,-100.00,WNW,292,1.0,8.0,79,0.00,,,0.01,170.000000,,2013-02-20 19:52:00,
2013-02-20 12:01:00,37.0,31.0,-100.00,WNW,292,1.0,8.0,79,0.00,,,0.01,170.000000,,2013-02-20 20:01:00,
2013-02-20 12:11:00,37.0,31.0,-100.00,WNW,292,1.0,8.0,79,0.00,,,0.01,170.000000,,2013-02-20 20:11:00,
2013-02-20 12:21:00,37.0,31.0,-100.00,WNW,292,1.0,8.0,79,0.00,,,0.01,170.000000,,2013-02-20 20:21:00,
2013-02-20 12:51:00,37.0,31.0,-100.00,WNW,284,1.0,9.0,80,0.00,,,0.01,171.000000,,2013-02-20 20:51:00,
2013-02-20 13:01:00,37.0,31.0,-100.00,WNW,284,1.0,9.0,80,0.00,,,0.01,171.000000,,2013-02-20 21:01:00,
2013-02-20 13:11:00,37.0,31.0,-100.00,WNW,284,1.0,9.0,80,0.00,,,0.01,171.000000,,2013-02-20 21:11:00,
2013-02-20 13:21:00,37.0,31.0,-100.00,WNW,284,1.0,9.0,80,0.00,,,0.01,171.000000,,2013-02-20 21:21:00,
2013-02-20 13:52:00,38.0,33.0,-100.00,WNW,284,2.0,8.0,82,0.00,,,0.01,231.000000,,2013-02-20 21:52:00,
2013-02-20 14:01:00,38.0,33.0,-100.00,WNW,284,2.0,8.0,82,0.00,,,0.01,231.000000,,2013-02-20 22:01:00,
2013-02-20 14:11:00,38.0,33.0,-100.00,WNW,284,2.0,8.0,82,0.00,,,0.01,231.000000,,2013-02-20 22:11:00,
2013-02-20 14:21:00,38.0,33.0,-100.00,WNW,284,2.0,8.0,82,0.00,,,0.01,231.000000,,2013-02-20 22:21:00,
2013-02-20 15:12:00,40.0,35.0,-100.00,NW,312,0.0,3.0,83,0.01,,,0.02,169.000000,,2013-02-20 23:12:00,
2013-02-20 15:22:00,40.0,35.0,-100.00,NW,312,0.0,3.0,83,0.01,,,0.02,169.000000,,2013-02-20 23:22:00,
2013-02-20 15:52:00,37.0,34.0,-100.00,NNW,348,0.0,3.0,88,0.01,,,0.03,150.000000,,2013-02-20 23:52:00,
2013-02-20 16:02:00,37.0,34.0,-100.00,NNW,348,0.0,3.0,88,0.01,,,0.03,150.000000,,2013-02-21 00:02:00,
2013-02-20 16:11:00,37.0,34.0,-100.00,NNW,348,0.0,3.0,88,0.01,,,0.03,150.000000,,2013-02-21 00:11:00,
2013-02-20 16:21:00,37.0,34.0,-100.00,NNW,348,0.0,3.0,88,0.01,,,0.03,150.000000,,2013-02-21 00:21:00,
2013-02-20 16:52:00,35.0,33.0,-100.00,ENE,61,1.0,4.0,93,0.01,,,0.04,84.000000,,2013-02-21 00:52:00,
2013-02-20 17:01:00,35.0,33.0,-100.00,ENE,61,1.0,4.0,93,0.01,,,0.04,84.000000,,2013-02-21 01:01:00,
2013-02-20 17:11:00,35.0,33.0,-100.00,ENE,61,1.0,4.0,93,0.01,,,0.04,84.000000,,2013-02-21 01:11:00,
2013-02-20 17:21:00,35.0,33.0,-100.00,ENE,61,1.0,4.0,93,0.01,,,0.04,84.000000,,2013-02-21 01:21:00,
2013-02-20 17:52:00,34.0,32.0,-100.00,NE,34,0.0,4.0,94,0.00,,,0.04,47.000000,,2013-02-21 01:52:00,
2013-02-20 18:01:00,34.0,32.0,-100.00,NE,34,0.0,4.0,94,0.00,,,0.04,47.000000,,2013-02-21 02:01:00,
2013-02-20 18:11:00,34.0,32.0,-100.00,NE,34,0.0,4.0,94,0.00,,,0.04,47.000000,,2013-02-21 02:11:00,
2013-02-20 18:21:00,34.0,32.0,-100.00,NE,34,0.0,4.0,94,0.00,,,0.04,47.000000,,2013-02-21 02:21:00,
2013-02-20 19:01:00,33.0,32.0,-100.00,SW,214,2.0,3.0,96,0.00,,,0.04,6.000000,,2013-02-21 03:01:00,
2013-02-20 19:11:00,33.0,32.0,-100.00,SW,214,2.0,3.0,96,0.00,,,0.04,6.000000,,2013-02-21 03:11:00,
2013-02-20 19:21:00,33.0,32.0,-100.00,SW,214,2.0,3.0,96,0.00,,,0.04,6.000000,,2013-02-21 03:21:00,
2013-02-20 19:52:00,32.0,31.0,-100.00,ESE,115,1.0,4.0,96,0.00,,,0.04,0.000000,,2013-02-21 03:52:00,
2013-02-20 20:01:00,32.0,31.0,-100.00,ESE,115,1.0,4.0,96,0.00,,,0.04,0.000000,,2013-02-21 04:01:00,
2013-02-20 20:11:00,32.0,31.0,-100.00,ESE,115,1.0,4.0,96,0.00,,,0.04,0.000000,,2013-02-21 04:11:00,
2013-02-20 20:21:00,32.0,31.0,-100.00,ESE,115,1.0,4.0,96,0.00,,,0.04,0.000000,,2013-02-21 04:21:00,
2013-02-20 20:52:00,32.0,31.0,-100.00,ESE,117,0.0,2.0,97,0.00,,,0.04,0.000000,,2013-02-21 04:52:00,
2013-02-20 21:02:00,32.0,31.0,-100.00,ESE,117,0.0,2.0,97,0.00,,,0.04,0.000000,,2013-02-21 05:02:00,
2013-02-20 21:12:00,32.0,31.0,-100.00,ESE,117,0.0,2.0,97,0.00,,,0.04,0.000000,,2013-02-21 05:12:00,
2013-02-20 21:21:00,32.0,31.0,-100.00,ESE,117,0.0,2.0,97,0.00,,,0.04,0.000000,,2013-02-21 05:21:00,
2013-02-20 21:59:00,32.0,31.0,-100.00,ESE,105,0.0,2.0,97,0.00,,,0.04,0.000000,,2013-02-21 05:59:00,
2013-02-20 22:01:00,32.0,31.0,-100.00,ESE,105,0.0,2.0,97,0.00,,,0.04,0.000000,,2013-02-21 06:01:00,
2013-02-20 22:11:00,32.0,31.0,-100.00,ESE,105,0.0,2.0,97,0.00,,,0.04,0.000000,,2013-02-21 06:11:00,
2013-02-20 22:21:00,32.0,31.0,-100.00,ESE,105,0.0,2.0,97,0.00,,,0.04,0.000000,,2013-02-21 06:21:00,
2013-02-20 22:51:00,31.0,30.0,-100.00,SSW,194,0.0,3.0,97,0.00,,,0.04,0.000000,,2013-02-21 06:51:00,
2013-02-20 23:01:00,31.0,30.0,-100.00,SSW,194,0.0,3.0,97,0.00,,,0.04,0.000000,,2013-02-21 07:01:00,
2013-02-20 23:11:00,31.0,30.0,-100.00,SSW,194,0.0,3.0,97,0.00,,,0.04,0.000000,,2013-02-21 07:11:00,
2013-02-20 23:21:00,31.0,30.0,-100.00,SSW,194,0.0,3.0,97,0.00,,,0.04,0.000000,,2013-02-21 07:21:00,
2013-02-20 23:52:00,31.0,30.0,-100.00,South,184,0.0,3.0,97,0.00,,,0.04,0.000000,,2013-02-21 07:52:00,